Time;durP1;ratioP1;P1;durP2;ratioP2;P2;SDS_P1;SDS_P2;PMS_P1;PMS_P2;Temp;Humidity;BMP_temperature;BMP_pressure;BME280_temperature;BME280_humidity;BME280_pressure;Samples;Min_cycle;Max_cycle;Signal;HPM_P1;HPM_P2
2022/04/20 00:01:10;;;;;;;13.18;7.20;;;;;;;7.70;62.93;101292.34;1693577;81;21072;-87
2022/04/20 00:03:38;;;;;;;12.82;7.95;;;;;;;7.70;62.94;101289.73;1699077;81;21160;-87
2022/04/20 00:06:05;;;;;;;17.27;7.17;;;;;;;7.70;62.97;101294.55;1720488;82;22068;-86
2022/04/20 00:08:33;;;;;;;11.97;7.05;;;;;;;7.69;62.97;101297.09;1697616;82;21111;-87
2022/04/20 00:11:00;;;;;;;11.22;6.75;;;;;;;7.70;63.08;101296.28;1704205;81;21772;-86
2022/04/20 00:13:27;;;;;;;13.15;6.97;;;;;;;7.71;63.09;101301.98;1703544;83;21085;-86
2022/04/20 00:15:55;;;;;;;11.85;6.60;;;;;;;7.72;63.14;101297.23;1669403;84;21699;-89
2022/04/20 00:18:21;;;;;;;9.95;6.75;;;;;;;7.72;63.25;101300.75;1672202;83;21138;-87
2022/04/20 00:20:48;;;;;;;13.22;6.05;;;;;;;7.67;63.25;101293.08;1663454;84;21078;-87
2022/04/20 00:23:17;;;;;;;9.95;5.85;;;;;;;7.71;63.35;101303.30;1693197;83;21501;-87
2022/04/20 00:25:43;;;;;;;13.32;6.60;;;;;;;7.70;63.38;101300.20;1689574;83;21536;-86
2022/04/20 00:28:10;;;;;;;12.20;6.30;;;;;;;7.68;63.48;101295.31;1689460;83;21112;-88
2022/04/20 00:30:37;;;;;;;12.43;6.17;;;;;;;7.68;63.56;101298.82;1689422;83;21117;-88
2022/04/20 00:33:04;;;;;;;16.48;7.70;;;;;;;7.67;63.65;101307.49;1689501;83;21135;-88
2022/04/20 00:35:31;;;;;;;15.30;6.47;;;;;;;7.64;63.76;101310.38;1689716;83;22451;-88
2022/04/20 00:37:58;;;;;;;12.95;7.10;;;;;;;7.62;63.88;101322.52;1666343;84;21033;-88
2022/04/20 00:40:25;;;;;;;19.05;7.58;;;;;;;7.57;63.96;101312.73;1668726;84;21367;-87
2022/04/20 00:42:53;;;;;;;13.13;7.20;;;;;;;7.54;64.08;101323.48;1695693;83;21086;-87
2022/04/20 00:45:22;;;;;;;14.28;6.25;;;;;;;7.56;64.31;101316.59;1693852;83;21408;-87
2022/04/20 00:47:49;;;;;;;13.53;6.70;;;;;;;7.55;64.40;101320.05;1671788;84;21769;-87
2022/04/20 00:50:15;;;;;;;13.88;6.30;;;;;;;7.56;64.52;101301.79;1706856;83;21190;-87
2022/04/20 00:52:42;;;;;;;14.98;6.60;;;;;;;7.59;64.56;101286.61;1694521;83;21065;-88
2022/04/20 00:55:10;;;;;;;14.65;6.50;;;;;;;7.62;64.61;101279.29;1694373;83;21177;-88
2022/04/20 00:57:37;;;;;;;13.80;6.17;;;;;;;7.63;64.71;101258.83;1692965;83;21315;-88
2022/04/20 01:00:05;;;;;;;11.60;6.17;;;;;;;7.62;64.77;101244.84;1694615;83;21825;-88
2022/04/20 01:02:34;;;;;;;12.18;6.08;;;;;;;7.61;64.75;101250.89;1716028;81;21644;-88
2022/04/20 01:05:01;;;;;;;10.45;5.70;;;;;;;7.59;64.82;101248.62;1689531;83;21100;-88
2022/04/20 01:07:35;;;;;;;11.93;5.25;;;;;;;7.59;64.90;101253.44;1715669;81;21160;-88
2022/04/20 01:10:02;;;;;;;11.38;5.12;;;;;;;7.61;64.95;101252.20;1711330;82;21013;-87
2022/04/20 01:12:29;;;;;;;9.48;5.08;;;;;;;7.64;64.95;101244.49;1733367;81;21834;-89
2022/04/20 01:14:55;;;;;;;8.00;4.67;;;;;;;7.67;64.98;101243.30;1694462;81;20983;-87
2022/04/20 01:17:22;;;;;;;8.08;4.28;;;;;;;7.69;64.96;101239.44;1694426;81;21092;-87
2022/04/20 01:19:49;;;;;;;10.25;4.50;;;;;;;7.70;65.00;101236.90;1694645;82;21059;-87
2022/04/20 01:22:16;;;;;;;8.98;4.83;;;;;;;7.70;65.04;101229.46;1695058;81;22201;-87
2022/04/20 01:24:43;;;;;;;9.73;5.45;;;;;;;7.69;65.04;101223.30;1694975;82;21826;-88
2022/04/20 01:27:11;;;;;;;14.90;5.28;;;;;;;7.65;65.15;101230.55;1694823;81;21356;-88
2022/04/20 01:29:37;;;;;;;11.28;5.47;;;;;;;7.64;65.22;101230.08;1694921;81;21664;-89
2022/04/20 01:32:06;;;;;;;13.55;4.67;;;;;;;7.64;65.33;101233.09;1694602;81;21130;-88
2022/04/20 01:34:33;;;;;;;8.85;4.67;;;;;;;7.65;65.38;101246.69;1698751;81;21170;-87
2022/04/20 01:37:01;;;;;;;9.40;4.97;;;;;;;7.63;65.45;101245.30;1715612;82;21054;-88
2022/04/20 01:39:31;;;;;;;8.23;4.85;;;;;;;7.63;65.60;101243.99;1694083;82;20966;-89
2022/04/20 01:41:58;;;;;;;8.28;4.10;;;;;;;7.63;65.62;101236.14;1694378;82;21980;-88
2022/04/20 01:44:27;;;;;;;11.38;4.83;;;;;;;7.65;65.73;101237.52;1694052;82;21318;-86
2022/04/20 01:46:53;;;;;;;8.68;4.58;;;;;;;7.64;65.82;101235.71;1693565;82;21065;-87
2022/04/20 01:49:20;;;;;;;9.78;4.87;;;;;;;7.63;65.84;101224.34;1694060;82;22605;-87
2022/04/20 01:51:46;;;;;;;12.20;4.70;;;;;;;7.63;65.95;101222.15;1701217;82;21088;-87
2022/04/20 01:54:14;;;;;;;8.58;4.70;;;;;;;7.61;65.98;101217.26;1719242;81;21605;-89
2022/04/20 01:56:40;;;;;;;10.65;4.40;;;;;;;7.58;66.09;101214.98;1694133;82;21255;-89
2022/04/20 01:59:08;;;;;;;6.78;4.10;;;;;;;7.56;66.15;101206.55;1694412;81;21129;-88
2022/04/20 02:04:20;;;;;;;9.13;4.45;;;;;;;7.56;66.32;101190.45;1688499;82;21116;-88
2022/04/20 02:06:47;;;;;;;11.50;4.85;;;;;;;7.55;66.46;101183.83;1701714;82;21077;-88
2022/04/20 02:09:14;;;;;;;12.00;4.30;;;;;;;7.58;66.48;101184.86;1707853;82;21088;-88
2022/04/20 02:11:41;;;;;;;10.30;4.87;;;;;;;7.59;66.54;101187.94;1714672;82;21109;-88
2022/04/20 02:14:08;;;;;;;13.13;4.80;;;;;;;7.59;66.61;101187.05;1697133;82;21804;-88
2022/04/20 02:16:34;;;;;;;8.13;4.92;;;;;;;7.57;66.70;101188.29;1711531;82;21004;-87
2022/04/20 02:19:05;;;;;;;13.40;4.62;;;;;;;7.57;66.75;101184.78;1707812;81;21636;-88
2022/04/20 02:21:32;;;;;;;8.63;4.15;;;;;;;7.55;66.85;101179.47;1721905;82;21587;-87
2022/04/20 02:23:59;;;;;;;5.80;3.62;;;;;;;7.56;66.92;101182.98;1721992;81;21006;-87
2022/04/20 02:26:25;;;;;;;6.20;4.37;;;;;;;7.58;66.97;101180.01;1703658;82;21672;-87
2022/04/20 02:28:55;;;;;;;11.35;4.10;;;;;;;7.61;66.98;101175.34;1700229;82;21106;-88
2022/04/20 02:31:27;;;;;;;7.03;4.12;;;;;;;7.62;67.05;101170.17;1721462;82;21109;-88
2022/04/20 02:33:55;;;;;;;9.68;4.83;;;;;;;7.60;67.03;101179.66;1716195;82;21536;-89
2022/04/20 02:36:22;;;;;;;6.55;4.67;;;;;;;7.65;67.16;101186.42;1709546;82;22374;-88
2022/04/20 02:38:50;;;;;;;8.78;4.12;;;;;;;7.66;67.12;101173.41;1678093;83;21090;-88
2022/04/20 02:41:19;;;;;;;8.83;3.98;;;;;;;7.69;67.04;101170.89;1705124;82;21607;-88
2022/04/20 02:43:46;;;;;;;7.85;3.83;;;;;;;7.69;67.02;101160.41;1711171;82;21598;-88
2022/04/20 02:46:12;;;;;;;9.93;3.98;;;;;;;7.70;67.06;101151.73;1698672;83;21759;-89
2022/04/20 02:48:40;;;;;;;7.75;3.90;;;;;;;7.74;67.08;101137.05;1706733;82;21005;-88
2022/04/20 02:51:08;;;;;;;6.75;4.05;;;;;;;7.81;67.13;101141.72;1678572;84;21700;-89
2022/04/20 02:53:35;;;;;;;7.87;3.72;;;;;;;7.85;67.04;101141.02;1716009;82;21063;-88
2022/04/20 02:56:02;;;;;;;7.90;4.37;;;;;;;7.88;67.03;101149.02;1715445;82;21072;-86
2022/04/20 02:58:29;;;;;;;11.57;4.97;;;;;;;7.92;67.00;101145.69;1711960;82;21068;-89
2022/04/20 03:00:57;;;;;;;13.55;5.08;;;;;;;7.93;66.90;101142.22;1713692;82;21097;-88
2022/04/20 03:03:24;;;;;;;6.75;4.00;;;;;;;7.97;66.93;101146.75;1697000;82;22027;-88
2022/04/20 03:05:53;;;;;;;10.40;4.80;;;;;;;8.01;66.89;101143.84;1696905;82;21028;-88
2022/04/20 03:08:19;;;;;;;7.42;3.75;;;;;;;8.07;66.94;101151.98;1696967;82;21094;-87
2022/04/20 03:10:47;;;;;;;8.88;4.53;;;;;;;8.10;66.87;101152.09;1720606;82;21132;-89
2022/04/20 03:13:15;;;;;;;7.97;4.00;;;;;;;8.13;66.83;101162.72;1726498;82;21610;-88
2022/04/20 03:15:44;;;;;;;4.70;3.77;;;;;;;8.12;66.56;101163.97;1704275;82;21793;-87
2022/04/20 03:18:11;;;;;;;10.48;3.42;;;;;;;8.10;66.57;101152.52;1707396;82;21700;-88
2022/04/20 03:20:38;;;;;;;6.90;3.45;;;;;;;8.10;66.53;101156.45;1726770;82;21048;-87
2022/04/20 03:23:08;;;;;;;6.35;3.37;;;;;;;8.08;66.55;101161.63;1697656;82;21564;-87
2022/04/20 03:25:35;;;;;;;9.70;3.87;;;;;;;8.08;66.47;101166.88;1696868;82;21126;-87
2022/04/20 03:28:01;;;;;;;18.95;4.90;;;;;;;8.05;66.42;101166.77;1703165;81;21679;-88
2022/04/20 03:30:39;;;;;;;10.08;4.35;;;;;;;8.07;66.41;101174.67;1710863;82;20993;-87
2022/04/20 03:33:08;;;;;;;6.72;3.77;;;;;;;7.94;66.41;101158.44;1698757;82;21019;-86
2022/04/20 03:35:42;;;;;;;8.58;4.20;;;;;;;8.05;66.42;101183.81;1714751;82;20986;-88
2022/04/20 03:38:08;;;;;;;11.22;4.28;;;;;;;8.02;66.36;101182.78;1703931;82;21100;-87
2022/04/20 03:40:35;;;;;;;9.68;3.83;;;;;;;7.95;66.43;101192.98;1711689;82;21739;-88
2022/04/20 03:43:13;;;;;;;12.18;4.42;;;;;;;7.93;66.57;101197.27;1719812;82;21105;-88
2022/04/20 03:45:34;;;;;;;9.78;3.92;;;;;;;7.93;66.54;101197.69;1720053;82;21069;-88
2022/04/20 03:48:01;;;;;;;5.90;4.17;;;;;;;7.91;66.60;101202.86;1698061;82;22353;-88
2022/04/20 03:50:28;;;;;;;8.23;4.40;;;;;;;7.89;66.64;101204.95;1708683;82;21478;-88
2022/04/20 03:52:54;;;;;;;7.10;4.10;;;;;;;7.90;66.73;101209.34;1697289;82;22398;-87
2022/04/20 03:55:26;;;;;;;10.63;4.80;;;;;;;7.88;66.74;101206.68;1711180;82;21589;-87
2022/04/20 03:57:54;;;;;;;9.38;4.25;;;;;;;7.87;66.78;101204.88;1714363;82;21141;-87
2022/04/20 04:00:34;;;;;;;;;;;;;;;;;;;;;
2022/04/20 04:02:53;;;;;;;10.60;4.58;;;;;;;7.84;66.92;101211.28;1723953;81;21060;-86
2022/04/20 04:05:20;;;;;;;10.68;5.00;;;;;;;7.78;66.94;101202.73;1716694;82;21756;-84
2022/04/20 04:07:50;;;;;;;9.28;5.03;;;;;;;7.75;67.08;101198.70;1726363;82;22053;-88
2022/04/20 04:10:24;;;;;;;9.58;3.90;;;;;;;7.75;67.22;101199.09;1718874;82;21576;-88
2022/04/20 04:12:51;;;;;;;9.98;5.08;;;;;;;7.77;67.29;101199.66;1722525;82;21117;-87
2022/04/20 04:15:18;;;;;;;10.78;4.85;;;;;;;7.77;67.29;101193.50;1701328;82;21491;-86
2022/04/20 04:17:48;;;;;;;8.53;4.95;;;;;;;7.74;67.33;101198.20;1699174;82;21797;-86
2022/04/20 04:20:15;;;;;;;10.80;4.53;;;;;;;7.74;67.46;101186.83;1699248;82;21064;-86
2022/04/20 04:22:42;;;;;;;10.75;4.58;;;;;;;7.77;67.52;101180.00;1715352;82;21122;-84
2022/04/20 04:25:12;;;;;;;9.70;4.65;;;;;;;7.79;67.53;101180.08;1702650;82;21421;-86
2022/04/20 04:27:39;;;;;;;8.88;4.22;;;;;;;7.77;67.55;101180.00;1670850;84;21128;-87
2022/04/20 04:30:08;;;;;;;9.83;4.28;;;;;;;7.77;67.64;101165.59;1709048;83;21399;-87
2022/04/20 04:32:44;;;;;;;8.15;4.05;;;;;;;7.63;67.69;101124.78;1668256;84;21120;-86
2022/04/20 04:35:10;;;;;;;8.78;4.20;;;;;;;7.82;67.75;101153.09;1702851;82;21104;-87
2022/04/20 04:37:39;;;;;;;10.53;4.62;;;;;;;7.84;67.75;101151.42;1674718;83;21926;-88
2022/04/20 04:40:09;;;;;;;11.95;4.12;;;;;;;7.85;67.72;101155.43;1707410;83;21010;-87
2022/04/20 04:42:45;;;;;;;9.53;4.35;;;;;;;7.71;67.68;101137.78;1667568;84;21127;-86
2022/04/20 04:48:42;;;;;;;10.75;4.03;;;;;;;7.89;67.75;101157.34;1668481;84;21477;-86
2022/04/20 04:54:13;;;;;;;7.90;3.85;;;;;;;8.01;67.70;101163.94;1707130;82;21154;-87
2022/04/20 04:56:41;;;;;;;12.93;3.90;;;;;;;8.10;67.61;101159.08;1712801;82;21879;-92
2022/04/20 04:59:11;;;;;;;10.30;3.72;;;;;;;8.13;67.47;101165.77;1701386;83;21058;-92
2022/04/20 05:01:37;;;;;;;9.10;3.95;;;;;;;8.14;67.39;101166.23;1718967;81;21145;-89
2022/04/20 05:04:05;;;;;;;9.13;4.25;;;;;;;8.14;67.36;101169.74;1722996;81;21042;-88
2022/04/20 05:06:48;;;;;;;8.70;4.03;;;;;;;8.13;67.22;101172.33;1722578;81;21078;-89
2022/04/20 05:09:16;;;;;;;8.43;4.75;;;;;;;8.06;67.26;101149.30;1691876;83;21362;-88
2022/04/20 05:11:43;;;;;;;7.53;4.22;;;;;;;8.19;67.31;101172.57;1694270;81;21078;-91
2022/04/20 05:14:13;;;;;;;8.73;3.75;;;;;;;8.21;67.31;101171.33;1720222;82;21097;-87
2022/04/20 05:16:41;;;;;;;8.40;4.62;;;;;;;8.23;67.35;101156.55;1719941;83;21062;-90
2022/04/20 05:19:14;;;;;;;8.20;3.80;;;;;;;8.28;67.29;101160.27;1695962;83;21112;-90
2022/04/20 05:21:51;;;;;;;7.35;4.87;;;;;;;8.35;67.23;101156.64;1711430;83;21043;-86
2022/04/20 05:24:21;;;;;;;7.70;4.47;;;;;;;8.47;67.31;101161.94;1678332;82;21070;-85
2022/04/20 05:26:48;;;;;;;10.45;4.33;;;;;;;8.55;67.14;101156.13;1711385;81;21089;-88
2022/04/20 05:29:17;;;;;;;8.60;4.12;;;;;;;8.61;66.97;101142.36;1707820;81;21335;-86
2022/04/20 05:31:44;;;;;;;10.63;3.75;;;;;;;8.67;66.76;101155.75;1667216;84;21097;-87
2022/04/20 05:34:10;;;;;;;7.12;2.95;;;;;;;8.73;66.45;101149.42;1733711;80;21876;-86
2022/04/20 05:42:19;;;;;;;7.40;3.65;;;;;;;9.04;66.05;101137.88;1672084;83;21473;-87
2022/04/20 05:44:48;;;;;;;11.03;3.60;;;;;;;9.15;65.64;101139.16;1702241;83;21764;-87
2022/04/20 05:47:15;;;;;;;6.05;3.15;;;;;;;9.17;65.38;101140.54;1690911;84;21957;-87
2022/04/20 05:49:56;;;;;;;5.28;3.08;;;;;;;9.16;65.22;101134.41;1690002;84;21137;-87
2022/04/20 05:52:24;;;;;;;9.18;3.83;;;;;;;9.17;65.08;101136.60;1694454;82;21187;-88
2022/04/20 05:54:51;;;;;;;8.03;3.98;;;;;;;9.12;64.88;101127.22;1723610;83;22193;-87
2022/04/20 05:57:18;;;;;;;8.95;3.77;;;;;;;9.11;64.96;101121.52;1701489;82;21579;-85
2022/04/20 05:59:44;;;;;;;7.60;3.62;;;;;;;9.10;64.64;101123.25;1720226;83;21700;-87
2022/04/20 06:02:14;;;;;;;8.38;3.30;;;;;;;9.05;64.66;101124.80;1707610;81;21548;-88
2022/04/20 06:04:41;;;;;;;6.45;3.50;;;;;;;9.05;64.37;101130.48;1740889;81;21129;-88
2022/04/20 06:07:13;;;;;;;7.37;3.40;;;;;;;9.02;64.60;101123.37;1721343;81;21249;-88
2022/04/20 06:09:40;;;;;;;9.18;3.77;;;;;;;9.01;64.43;101120.67;1732861;81;21097;-87
2022/04/20 06:12:13;;;;;;;5.20;3.35;;;;;;;9.03;64.69;101110.73;1710568;83;21755;-87
2022/04/20 06:14:40;;;;;;;6.03;3.20;;;;;;;9.12;64.54;101107.52;1704135;83;21582;-88
2022/04/20 06:17:07;;;;;;;7.12;3.62;;;;;;;9.23;64.16;101095.67;1720182;83;21555;-87
2022/04/20 06:19:37;;;;;;;6.30;2.80;;;;;;;9.41;63.97;101094.56;1719986;83;21042;-89
2022/04/20 06:22:07;;;;;;;8.85;3.22;;;;;;;9.55;63.83;101097.23;1723347;83;21061;-87
2022/04/20 06:24:53;;;;;;;11.08;3.40;;;;;;;9.45;63.11;101085.52;1706775;81;21768;-89
2022/04/20 06:27:38;;;;;;;4.65;3.22;;;;;;;9.50;63.22;101080.44;1729743;81;21149;-88
2022/04/20 06:30:40;;;;;;;5.08;2.98;;;;;;;9.55;63.36;101095.92;1712540;82;21097;-89
2022/04/20 06:33:16;;;;;;;6.70;2.75;;;;;;;9.55;62.94;101074.89;1724503;81;21038;-88
2022/04/20 06:35:43;;;;;;;8.23;3.20;;;;;;;9.52;62.95;101065.19;1735039;82;21061;-88
2022/04/20 06:38:11;;;;;;;7.90;3.27;;;;;;;9.52;63.05;101073.06;1735139;82;22603;-88
2022/04/20 06:40:40;;;;;;;7.85;3.45;;;;;;;9.53;62.85;101052.92;1738113;81;21112;-90
2022/04/20 06:43:07;;;;;;;9.83;3.20;;;;;;;9.57;62.92;101064.44;1766192;80;21595;-89
2022/04/20 06:45:36;;;;;;;6.72;2.70;;;;;;;9.72;62.95;101067.58;1754286;81;21511;-88
2022/04/20 06:48:03;;;;;;;6.22;3.33;;;;;;;9.95;62.65;101054.30;1735935;81;21041;-88
2022/04/20 06:50:31;;;;;;;6.62;2.90;;;;;;;10.11;62.68;101039.05;1723292;81;21777;-87
2022/04/20 06:58:33;;;;;;;5.85;2.75;;;;;;;10.43;61.39;101022.08;1702725;81;21105;-87
2022/04/20 07:01:01;;;;;;;8.53;3.50;;;;;;;10.44;61.22;101026.95;1702455;82;21566;-88
2022/04/20 07:03:28;;;;;;;5.95;2.90;;;;;;;10.56;61.31;101037.82;1765318;81;21781;-85
2022/04/20 07:05:57;;;;;;;6.17;3.10;;;;;;;10.60;60.77;101059.87;1733730;81;21058;-87
2022/04/20 07:08:32;;;;;;;11.95;3.12;;;;;;;10.55;60.51;101049.22;1724240;81;21141;-85
2022/04/20 07:11:02;;;;;;;11.28;3.25;;;;;;;10.52;60.34;101039.02;1728325;81;21047;-86
2022/04/20 07:13:31;;;;;;;8.70;3.27;;;;;;;10.54;60.49;101040.83;1729183;81;21077;-86
2022/04/20 07:15:58;;;;;;;9.08;3.20;;;;;;;10.50;59.97;101042.91;1788536;79;22321;-86
2022/04/20 07:18:24;;;;;;;5.62;3.52;;;;;;;10.50;60.05;101037.22;1770465;80;21061;-87
2022/04/20 07:20:51;;;;;;;6.35;2.95;;;;;;;10.49;59.86;101035.45;1752964;80;21089;-87
2022/04/20 07:23:18;;;;;;;7.72;3.33;;;;;;;10.53;60.06;101057.49;1780813;80;21384;-86
2022/04/20 07:25:45;;;;;;;8.30;3.30;;;;;;;10.57;59.79;101062.42;1732318;80;21546;-86
2022/04/20 07:28:13;;;;;;;8.53;3.50;;;;;;;10.46;59.34;101062.98;1750929;80;21852;-87
2022/04/20 07:30:40;;;;;;;10.68;3.37;;;;;;;10.26;59.38;101038.64;1754114;80;22440;-86
2022/04/20 07:33:07;;;;;;;7.28;3.72;;;;;;;10.17;59.43;101038.36;1755943;80;21065;-87
2022/04/20 07:35:34;;;;;;;12.60;3.65;;;;;;;10.10;59.84;101041.66;1752185;80;21074;-87
2022/04/20 07:38:00;;;;;;;5.83;3.22;;;;;;;10.12;59.96;101034.28;1751806;80;21577;-86
2022/04/20 07:40:27;;;;;;;7.85;3.47;;;;;;;10.19;59.87;101068.66;1741213;80;21757;-87
2022/04/20 07:42:54;;;;;;;8.80;3.02;;;;;;;10.15;59.53;101041.36;1750771;80;21050;-87
2022/04/20 07:45:25;;;;;;;8.53;3.05;;;;;;;10.12;59.40;101038.66;1730228;81;21073;-87
2022/04/20 07:47:51;;;;;;;7.33;3.35;;;;;;;10.14;59.60;101034.34;1726250;82;21061;-86
2022/04/20 07:50:19;;;;;;;8.15;3.20;;;;;;;10.16;59.49;101047.11;1726186;81;21158;-86
2022/04/20 07:52:51;;;;;;;11.18;3.37;;;;;;;10.16;59.38;101078.67;1692509;83;22423;-86
2022/04/20 07:55:33;;;;;;;8.50;3.37;;;;;;;10.04;59.03;101044.99;1721671;81;21069;-86
2022/04/20 07:58:04;;;;;;;19.07;3.47;;;;;;;9.99;59.07;101050.95;1768917;80;21657;-85
2022/04/20 08:00:31;;;;;;;11.25;3.35;;;;;;;9.88;59.28;101060.68;1745095;80;21077;-87
2022/04/20 08:03:16;;;;;;;7.25;3.77;;;;;;;9.85;59.27;101047.85;1755590;78;21421;-86
2022/04/20 08:05:45;;;;;;;6.55;2.95;;;;;;;9.89;59.54;101048.42;1744592;80;21757;-87
2022/04/20 08:08:12;;;;;;;7.22;3.25;;;;;;;9.94;59.38;101050.78;1764235;79;21034;-86
2022/04/20 08:10:39;;;;;;;7.62;3.35;;;;;;;10.00;59.24;101089.10;1724856;82;21047;-85
2022/04/20 08:15:56;;;;;;;12.20;3.65;;;;;;;9.91;59.04;101080.52;1754250;80;21030;-86
2022/04/20 08:18:23;;;;;;;10.53;3.83;;;;;;;9.90;59.05;101044.96;1748758;81;22589;-84
2022/04/20 08:20:50;;;;;;;8.03;3.50;;;;;;;10.02;59.67;101042.73;1759067;80;21042;-85
2022/04/20 08:23:17;;;;;;;10.05;4.08;;;;;;;10.17;59.54;101034.41;1765805;80;21073;-85
2022/04/20 08:25:44;;;;;;;11.57;3.80;;;;;;;10.18;59.21;101030.95;1718743;80;21423;-84
2022/04/20 08:28:16;;;;;;;9.83;3.95;;;;;;;10.23;59.23;101043.83;1771542;78;21053;-85
2022/04/20 08:30:44;;;;;;;4.97;3.37;;;;;;;10.24;59.14;101027.61;1753369;78;21873;-86
2022/04/20 08:33:11;;;;;;;7.60;2.95;;;;;;;10.33;59.33;101046.34;1762776;80;21368;-84
2022/04/20 08:35:38;;;;;;;9.03;4.00;;;;;;;10.38;58.65;101031.60;1723716;81;21026;-85
2022/04/20 08:38:05;;;;;;;8.65;3.45;;;;;;;10.34;58.78;101032.33;1735334;81;22153;-88
2022/04/20 08:40:33;;;;;;;9.55;3.80;;;;;;;10.37;58.54;101040.33;1710358;82;21086;-85
2022/04/20 08:43:06;;;;;;;7.92;3.60;;;;;;;10.30;58.43;101027.42;1719376;81;22417;-87
2022/04/20 08:45:37;;;;;;;5.37;3.17;;;;;;;10.36;58.81;101031.06;1754359;81;21050;-88
2022/04/20 08:48:01;;;;;;;8.00;3.92;;;;;;;10.49;58.69;101032.81;1752352;80;21120;-88
2022/04/20 08:50:28;;;;;;;10.43;3.50;;;;;;;10.49;58.23;101027.55;1748305;81;21098;-87
2022/04/20 08:52:55;;;;;;;9.60;3.77;;;;;;;10.49;58.28;101024.00;1701345;83;21085;-88
2022/04/20 08:55:22;;;;;;;12.35;3.40;;;;;;;10.53;58.40;101027.22;1765599;79;22610;-85
2022/04/20 08:57:52;;;;;;;9.43;3.70;;;;;;;10.56;58.20;101018.08;1711240;81;21113;-85
2022/04/20 09:00:25;;;;;;;10.35;3.62;;;;;;;10.62;58.17;101035.39;1735434;80;21327;-85
2022/04/20 09:02:55;;;;;;;7.15;3.52;;;;;;;10.73;58.20;101038.75;1740806;81;29731;-87
2022/04/20 09:05:23;;;;;;;9.48;3.70;;;;;;;10.76;57.50;101028.31;1741685;81;21082;-86
2022/04/20 09:07:52;;;;;;;7.45;3.33;;;;;;;10.72;57.67;101031.28;1706488;81;21959;-90
2022/04/20 09:10:21;;;;;;;7.92;4.05;;;;;;;10.71;57.39;101030.80;1730886;79;21095;-87
2022/04/20 09:13:15;;;;;;;5.60;3.08;;;;;;;10.60;57.39;101021.27;1715262;82;21051;-87
2022/04/20 09:15:37;;;;;;;7.22;3.42;;;;;;;10.64;57.37;101009.09;1714757;82;21064;-88
2022/04/20 09:18:24;;;;;;;6.92;3.55;;;;;;;10.77;57.32;101008.58;1733029;82;21244;-90
2022/04/20 09:20:54;;;;;;;6.60;3.95;;;;;;;10.76;56.99;101005.94;1713098;82;21593;-90
2022/04/20 09:23:23;;;;;;;8.30;3.75;;;;;;;10.78;56.76;101006.44;1735601;80;21110;-87
2022/04/20 09:25:50;;;;;;;5.08;3.37;;;;;;;10.73;57.04;101009.35;1713083;81;21011;-88
2022/04/20 09:28:18;;;;;;;9.98;3.75;;;;;;;10.75;56.88;101008.97;1736944;81;21027;-87
2022/04/20 09:31:01;;;;;;;9.23;3.47;;;;;;;10.76;57.06;100999.35;1743336;81;21570;-86
2022/04/20 09:33:44;;;;;;;6.70;3.33;;;;;;;10.74;56.94;100995.35;1717218;81;21083;-86
2022/04/20 09:36:48;;;;;;;12.45;4.37;;;;;;;10.65;56.58;101010.88;1728871;81;21054;-89
2022/04/20 09:39:15;;;;;;;18.48;5.30;;;;;;;10.47;56.62;101011.23;1734956;81;21568;-87
2022/04/20 09:42:01;;;;;;;10.10;4.72;;;;;;;10.26;56.87;100991.72;1735876;82;21126;-88
2022/04/20 09:44:30;;;;;;;14.45;3.98;;;;;;;10.20;57.30;101006.89;1734396;82;21070;-87
2022/04/20 09:50:01;;;;;;;11.30;4.10;;;;;;;10.19;56.97;101009.08;1743779;80;21082;-88
2022/04/20 09:52:43;;;;;;;10.03;3.98;;;;;;;10.18;56.89;101009.91;1730941;81;21066;-88
2022/04/20 09:55:21;;;;;;;12.23;3.80;;;;;;;10.14;57.02;101030.39;1733565;81;21107;-87
2022/04/20 09:57:47;;;;;;;10.10;4.58;;;;;;;10.11;57.21;101024.59;1743520;81;21054;-89
2022/04/20 10:00:15;;;;;;;9.88;3.37;;;;;;;10.20;57.39;101013.91;1734727;82;22457;-89
2022/04/20 10:02:53;;;;;;;9.93;4.20;;;;;;;10.26;57.13;101034.69;1742720;81;21065;-86
2022/04/20 10:05:23;;;;;;;10.72;3.55;;;;;;;10.26;56.97;101033.37;1757443;81;21146;-86
2022/04/20 10:07:58;;;;;;;14.18;4.47;;;;;;;10.33;56.75;101034.94;1744099;81;21431;-87
2022/04/20 10:10:22;;;;;;;9.70;3.43;;;;;;;10.41;56.70;101042.63;1728585;79;21120;-88
2022/04/20 10:12:51;;;;;;;10.68;3.60;;;;;;;10.42;56.13;101021.62;1734235;79;21713;-89
2022/04/20 10:18:03;;;;;;;14.65;4.25;;;;;;;10.48;56.42;101028.81;1718373;82;21596;-86
2022/04/20 10:20:33;;;;;;;10.35;4.10;;;;;;;10.49;56.19;101020.05;1737150;82;21078;-88
2022/04/20 10:23:01;;;;;;;9.95;3.52;;;;;;;10.52;56.52;101039.02;1740033;79;21140;-86
2022/04/20 10:25:28;;;;;;;11.38;3.98;;;;;;;10.69;56.57;101025.91;1759747;79;21923;-87
2022/04/20 10:28:36;;;;;;;11.33;3.80;;;;;;;10.89;56.43;101022.11;1759832;79;21025;-87
2022/04/20 10:31:14;;;;;;;9.73;3.87;;;;;;;10.93;55.83;101017.82;1727592;81;21109;-87
2022/04/20 10:33:41;;;;;;;6.62;3.17;;;;;;;10.96;55.57;101027.14;1758750;79;21431;-89
2022/04/20 10:36:14;;;;;;;8.63;4.08;;;;;;;11.09;55.21;101029.26;1755320;80;21082;-87
2022/04/20 10:38:41;;;;;;;5.35;3.22;;;;;;;11.28;55.31;101022.73;1720450;81;23557;-89
2022/04/20 10:41:10;;;;;;;11.45;3.98;;;;;;;11.47;54.85;101021.47;1752385;80;21058;-88
2022/04/20 10:43:44;;;;;;;6.22;3.08;;;;;;;11.56;54.57;101020.82;1746894;81;21532;-88
2022/04/20 10:46:16;;;;;;;;;;;;;;;11.74;54.51;101041.90;1761813;81;21036;-89
2022/04/20 10:49:04;;;;;;;7.05;3.12;;;;;;;11.80;53.76;101035.45;1739901;80;20704;-89
2022/04/20 10:51:43;;;;;;;7.72;2.85;;;;;;;11.87;53.78;101028.16;1730520;81;21766;-86
2022/04/20 10:54:26;;;;;;;7.83;2.80;;;;;;;11.98;53.18;101050.87;1754964;80;21143;-86
2022/04/20 10:57:08;;;;;;;11.43;3.00;;;;;;;11.86;52.39;101044.42;1743155;81;21089;-87
2022/04/20 10:59:36;;;;;;;9.15;3.42;;;;;;;11.74;52.60;101020.80;1739279;81;21429;-86
2022/04/20 11:02:07;;;;;;;8.70;2.90;;;;;;;11.65;52.80;101013.11;1738842;82;22714;-86
2022/04/20 11:04:42;;;;;;;8.90;3.65;;;;;;;11.70;53.20;101026.42;1744755;82;21808;-86
2022/04/20 11:07:15;;;;;;;9.45;3.50;;;;;;;11.72;52.56;101023.40;1729271;82;21765;-85
2022/04/20 11:09:53;;;;;;;10.55;3.87;;;;;;;11.66;52.69;101014.91;1740066;80;21082;-86
2022/04/20 11:18:42;;;;;;;12.70;3.33;;;;;;;11.63;53.08;101046.89;1714956;82;22514;-86
2022/04/20 11:21:11;;;;;;;11.35;3.98;;;;;;;11.63;52.09;101078.53;1734573;82;21058;-88
2022/04/20 11:24:03;;;;;;;8.28;3.75;;;;;;;11.56;52.53;101019.91;1731375;82;21056;-87
2022/04/20 11:26:41;;;;;;;13.18;4.75;;;;;;;11.43;52.72;100995.89;1714138;82;21599;-88
2022/04/20 11:29:18;;;;;;;7.20;3.50;;;;;;;11.59;55.71;101006.37;1713335;83;21074;-87
2022/04/20 11:31:48;;;;;;;10.60;3.25;;;;;;;11.75;53.72;101019.53;1714525;82;21811;-89
2022/04/20 11:34:20;;;;;;;8.20;3.92;;;;;;;11.82;53.09;101024.50;1714486;83;21803;-89
2022/04/20 11:36:48;;;;;;;13.90;4.40;;;;;;;11.83;53.15;101016.64;1714505;83;21355;-88
2022/04/20 11:39:16;;;;;;;11.12;4.58;;;;;;;11.83;52.57;101029.83;1714475;83;21055;-90
2022/04/20 11:41:51;;;;;;;9.38;3.83;;;;;;;11.73;52.50;101008.05;1717854;83;21086;-88
2022/04/20 11:44:40;;;;;;;8.68;4.17;;;;;;;11.58;52.30;100996.70;1714241;83;22727;-88
2022/04/20 11:47:09;;;;;;;11.83;3.90;;;;;;;11.55;52.49;100995.30;1719969;82;21030;-88
2022/04/20 11:49:40;;;;;;;8.63;3.67;;;;;;;11.54;52.37;100984.27;1704136;83;21059;-87
2022/04/20 11:52:14;;;;;;;8.15;2.90;;;;;;;11.53;52.52;100996.13;1714572;82;21501;-89
2022/04/20 11:54:48;;;;;;;13.45;4.10;;;;;;;11.66;52.47;100985.91;1743216;80;21011;-88
2022/04/20 11:57:14;;;;;;;9.75;3.75;;;;;;;11.74;52.49;100991.80;1703516;81;22039;-87
2022/04/20 11:59:50;;;;;;;7.17;3.67;;;;;;;11.77;52.04;100981.30;1736812;81;22590;-86
2022/04/20 12:02:19;;;;;;;9.60;4.10;;;;;;;11.84;52.24;100981.91;1719854;83;21098;-86
2022/04/20 12:04:54;;;;;;;8.55;3.72;;;;;;;12.02;52.26;100986.77;1725144;81;21129;-87
2022/04/20 12:07:21;;;;;;;8.45;3.25;;;;;;;12.08;51.78;100992.17;1722597;81;21566;-87
2022/04/20 12:09:53;;;;;;;9.03;4.12;;;;;;;12.23;51.84;100983.27;1725346;81;21734;-88
2022/04/20 12:12:17;;;;;;;9.38;4.53;;;;;;;12.31;51.57;100969.36;1712734;81;21065;-89
2022/04/20 12:14:44;;;;;;;8.70;5.00;;;;;;;12.52;51.27;100987.39;1686549;84;21126;-89
2022/04/20 12:17:23;;;;;;;9.50;3.58;;;;;;;12.64;50.58;100988.98;1694672;83;21065;-89